Time;durP1;ratioP1;P1;durP2;ratioP2;P2;SDS_P1;SDS_P2;PMS_P1;PMS_P2;Temp;Humidity;BMP_temperature;BMP_pressure;BME280_temperature;BME280_humidity;BME280_pressure;Samples;Min_cycle;Max_cycle;Signal;HPM_P1;HPM_P2
2022/03/09 00:01:34;;;;;;;25.80;15.57;;;1.40;94.80;;;;;;5054434;28;20182;-86
2022/03/09 00:04:00;;;;;;;26.80;15.00;;;1.40;94.80;;;;;;5052516;28;20578;-91
2022/03/09 00:06:26;;;;;;;25.77;15.93;;;1.40;94.80;;;;;;5053947;28;20189;-91
2022/03/09 00:08:52;;;;;;;28.83;16.98;;;1.40;94.70;;;;;;5052674;28;20201;-91
2022/03/09 00:11:18;;;;;;;25.90;16.52;;;1.50;94.70;;;;;;5054207;28;20635;-91
2022/03/09 00:13:44;;;;;;;27.60;16.50;;;1.50;94.60;;;;;;5051660;28;20279;-91
2022/03/09 00:16:10;;;;;;;22.13;13.73;;;1.50;94.70;;;;;;5053116;28;20173;-92
2022/03/09 00:18:36;;;;;;;25.00;15.25;;;1.50;94.50;;;;;;5054022;28;20401;-86
2022/03/09 00:21:02;;;;;;;23.63;15.33;;;1.50;94.50;;;;;;5054340;28;20240;-86
2022/03/09 00:23:28;;;;;;;24.77;16.10;;;1.50;94.50;;;;;;5054068;28;20765;-92
2022/03/09 00:25:53;;;;;;;26.20;16.37;;;1.60;94.70;;;;;;5053195;28;20174;-90
2022/03/09 00:28:19;;;;;;;23.77;15.60;;;1.60;94.60;;;;;;5053225;28;20296;-91
2022/03/09 00:30:45;;;;;;;23.97;15.47;;;1.60;94.60;;;;;;5054870;28;20170;-85
2022/03/09 00:33:10;;;;;;;26.70;17.13;;;1.60;94.60;;;;;;5054883;28;20572;-86
2022/03/09 00:35:39;;;;;;;27.60;15.10;;;1.70;94.80;;;;;;5054916;28;20173;-90
2022/03/09 00:38:05;;;;;;;26.25;17.30;;;1.70;94.60;;;;;;5058669;28;20193;-87
2022/03/09 00:40:32;;;;;;;27.92;17.25;;;1.70;94.70;;;;;;5074445;28;20173;-86
2022/03/09 00:42:58;;;;;;;25.27;16.52;;;1.80;94.90;;;;;;5073412;28;20209;-90
2022/03/09 00:45:24;;;;;;;25.85;16.15;;;1.80;94.80;;;;;;5075691;28;20188;-91
2022/03/09 00:47:49;;;;;;;22.15;14.60;;;1.80;94.80;;;;;;5075309;28;20201;-92
2022/03/09 00:50:15;;;;;;;24.73;17.27;;;1.80;94.70;;;;;;5084345;28;20187;-86
2022/03/09 00:52:41;;;;;;;31.17;17.20;;;1.80;95.60;;;;;;5076423;28;20866;-92
2022/03/09 00:55:08;;;;;;;30.90;17.63;;;1.80;95.60;;;;;;5072842;28;20688;-90
2022/03/09 00:57:34;;;;;;;22.70;16.17;;;1.70;95.70;;;;;;5072482;28;20209;-86
2022/03/09 00:59:59;;;;;;;22.10;16.02;;;1.70;95.70;;;;;;5073094;28;20178;-90
2022/03/09 01:02:25;;;;;;;25.20;16.50;;;1.60;95.60;;;;;;5072578;28;20247;-91
2022/03/09 01:04:51;;;;;;;25.48;16.45;;;1.60;95.90;;;;;;5073844;28;20175;-90
2022/03/09 01:07:17;;;;;;;24.93;15.23;;;1.50;95.90;;;;;;5072721;28;20292;-86
2022/03/09 01:09:43;;;;;;;24.33;17.53;;;1.50;95.90;;;;;;5073581;28;20169;-86
2022/03/09 01:12:08;;;;;;;29.63;18.20;;;1.40;95.90;;;;;;5074428;28;20727;-91
2022/03/09 01:14:34;;;;;;;26.50;16.20;;;1.40;96.40;;;;;;5073177;28;20268;-91
2022/03/09 01:17:00;;;;;;;25.57;16.77;;;1.30;96.50;;;;;;5074532;28;20479;-91
2022/03/09 01:19:26;;;;;;;30.93;16.50;;;1.30;96.40;;;;;;5072731;28;20184;-86
2022/03/09 01:21:51;;;;;;;26.20;17.20;;;1.20;96.40;;;;;;5074963;28;20181;-86
2022/03/09 01:24:17;;;;;;;26.23;16.70;;;1.20;96.10;;;;;;5074194;28;20189;-90
2022/03/09 01:26:43;;;;;;;21.73;14.60;;;1.20;96.10;;;;;;5083117;28;20509;-87
2022/03/09 01:29:09;;;;;;;23.17;16.17;;;1.10;95.80;;;;;;5075853;28;20197;-85
2022/03/09 01:31:35;;;;;;;24.60;15.47;;;1.10;95.60;;;;;;5075597;28;20185;-92
2022/03/09 01:34:01;;;;;;;23.30;15.38;;;1.10;95.60;;;;;;5076902;28;20228;-91
2022/03/09 01:36:27;;;;;;;24.52;15.82;;;1.10;95.60;;;;;;5075738;28;20192;-86
2022/03/09 01:38:52;;;;;;;24.70;15.43;;;1.10;95.80;;;;;;5064013;28;20558;-91
2022/03/09 01:41:18;;;;;;;27.00;14.80;;;1.10;95.50;;;;;;5055414;28;21277;-86
2022/03/09 01:43:44;;;;;;;25.03;15.23;;;1.10;95.50;;;;;;5055949;28;20667;-91
2022/03/09 01:46:09;;;;;;;20.13;15.30;;;1.10;95.50;;;;;;5056334;28;20174;-91
2022/03/09 01:48:35;;;;;;;22.97;15.57;;;1.10;95.70;;;;;;5058640;28;20194;-92
2022/03/09 01:51:01;;;;;;;25.57;16.70;;;1.10;95.70;;;;;;5065104;28;20192;-88
2022/03/09 01:53:27;;;;;;;27.08;17.42;;;1.10;95.60;;;;;;5077743;28;20206;-92
2022/03/09 01:55:53;;;;;;;22.03;15.43;;;1.00;95.50;;;;;;5070415;28;20162;-88
2022/03/09 01:58:19;;;;;;;27.17;16.67;;;1.00;95.50;;;;;;5072449;28;20466;-87
2022/03/09 02:00:45;;;;;;;27.30;16.00;;;1.00;95.50;;;;;;5059749;28;20498;-85
2022/03/09 02:03:10;;;;;;;26.83;18.40;;;1.00;95.40;;;;;;5055564;28;20213;-91
2022/03/09 02:05:36;;;;;;;23.87;16.33;;;1.00;95.80;;;;;;5055251;28;20389;-89
2022/03/09 02:10:47;;;;;;;27.92;16.80;;;1.00;95.70;;;;;;5056479;28;20918;-91
2022/03/09 02:13:12;;;;;;;27.80;15.95;;;1.00;95.70;;;;;;5055416;28;20249;-86
2022/03/09 02:15:38;;;;;;;26.07;16.47;;;1.00;95.70;;;;;;5056327;28;20201;-90
2022/03/09 02:18:04;;;;;;;23.90;15.50;;;1.00;95.60;;;;;;5054636;28;20934;-85
2022/03/09 02:20:30;;;;;;;23.63;16.15;;;1.00;95.70;;;;;;5055928;28;20170;-85
2022/03/09 02:22:56;;;;;;;33.70;20.77;;;1.00;96.00;;;;;;5056701;28;20198;-92
2022/03/09 02:25:22;;;;;;;41.43;22.77;;;1.00;96.10;;;;;;5056349;28;20391;-90
2022/03/09 02:27:48;;;;;;;38.03;21.73;;;1.00;96.00;;;;;;5056935;28;20410;-91
2022/03/09 02:30:19;;;;;;;29.88;20.40;;;1.00;95.90;;;;;;5060267;28;20403;-85
2022/03/09 02:32:47;;;;;;;26.65;16.85;;;1.00;96.00;;;;;;5066059;28;20240;-92
2022/03/09 02:35:15;;;;;;;25.48;16.75;;;1.00;96.10;;;;;;5059579;28;20181;-91
2022/03/09 02:37:41;;;;;;;33.70;19.55;;;1.00;96.00;;;;;;5055410;28;20318;-86
2022/03/09 02:40:10;;;;;;;28.83;17.73;;;1.00;96.00;;;;;;5074691;28;20173;-90
2022/03/09 02:42:36;;;;;;;28.40;17.45;;;1.00;96.10;;;;;;5074789;28;20198;-86
2022/03/09 02:45:03;;;;;;;22.83;17.10;;;0.90;96.20;;;;;;5074598;28;20193;-91
2022/03/09 02:47:29;;;;;;;23.75;14.90;;;0.90;96.40;;;;;;5076819;28;20233;-86
2022/03/09 02:49:55;;;;;;;18.53;13.70;;;0.90;96.50;;;;;;5075211;28;20173;-91
2022/03/09 02:52:21;;;;;;;20.87;15.80;;;0.90;96.60;;;;;;5075494;28;20912;-92
2022/03/09 02:54:47;;;;;;;22.67;15.10;;;0.90;96.60;;;;;;5074314;28;20185;-85
2022/03/09 02:57:12;;;;;;;24.90;14.60;;;0.90;96.60;;;;;;5075382;28;20232;-86
2022/03/09 02:59:38;;;;;;;22.90;13.60;;;0.90;96.50;;;;;;5076133;28;20184;-85
2022/03/09 03:02:04;;;;;;;19.40;13.83;;;1.00;97.00;;;;;;5075292;28;20448;-91
2022/03/09 03:04:30;;;;;;;24.07;15.37;;;1.00;96.80;;;;;;5076266;28;20188;-85
2022/03/09 03:06:55;;;;;;;26.10;16.07;;;1.00;96.90;;;;;;5076349;28;20284;-92
2022/03/09 03:09:21;;;;;;;23.10;13.60;;;1.10;96.90;;;;;;5082014;28;20246;-91
2022/03/09 03:11:47;;;;;;;21.83;14.43;;;1.10;96.70;;;;;;5083611;28;20193;-91
2022/03/09 03:14:12;;;;;;;23.07;14.00;;;1.10;96.70;;;;;;5073572;28;20443;-86
2022/03/09 03:16:38;;;;;;;21.63;13.17;;;1.20;96.80;;;;;;5074960;28;20177;-92
2022/03/09 03:19:04;;;;;;;24.50;12.97;;;1.20;96.80;;;;;;5073909;28;20185;-85
2022/03/09 03:21:30;;;;;;;23.83;13.20;;;1.20;96.70;;;;;;5073535;28;20173;-91
2022/03/09 03:23:56;;;;;;;22.02;14.32;;;1.30;96.60;;;;;;5074867;28;20754;-86
2022/03/09 03:26:24;;;;;;;18.77;13.67;;;1.30;96.60;;;;;;5074442;28;20188;-91
2022/03/09 03:28:49;;;;;;;17.27;12.85;;;1.30;96.90;;;;;;5074077;28;20201;-91
2022/03/09 03:31:15;;;;;;;23.97;14.20;;;1.40;96.90;;;;;;5075252;28;20265;-91
2022/03/09 03:33:41;;;;;;;20.37;12.57;;;1.40;97.00;;;;;;5075907;28;20328;-86
2022/03/09 03:36:06;;;;;;;20.03;13.00;;;1.40;97.00;;;;;;5075150;28;20219;-92
2022/03/09 03:38:32;;;;;;;20.00;12.80;;;1.50;97.00;;;;;;5081874;28;20198;-87
2022/03/09 03:40:58;;;;;;;26.10;12.77;;;1.50;97.10;;;;;;5060139;28;20221;-85
2022/03/09 03:43:23;;;;;;;21.40;13.20;;;1.60;96.80;;;;;;5058745;28;20565;-86
2022/03/09 03:45:49;;;;;;;21.23;14.13;;;1.60;96.70;;;;;;5054351;28;20174;-91
2022/03/09 03:48:15;;;;;;;24.43;12.90;;;1.60;96.60;;;;;;5053562;28;20231;-92
2022/03/09 03:50:41;;;;;;;22.40;13.77;;;1.70;96.70;;;;;;5052985;28;20407;-85
2022/03/09 03:53:06;;;;;;;20.33;12.93;;;1.70;96.80;;;;;;5054795;28;20687;-86
2022/03/09 03:55:32;;;;;;;19.93;12.90;;;1.70;96.70;;;;;;5054262;28;20464;-90
2022/03/09 03:57:58;;;;;;;19.13;13.47;;;1.70;96.80;;;;;;5053034;28;20205;-86
2022/03/09 04:00:23;;;;;;;21.90;12.20;;;1.80;96.90;;;;;;5052925;28;20178;-86
2022/03/09 04:02:51;;;;;;;19.57;13.80;;;1.80;97.00;;;;;;5054633;28;20500;-91
2022/03/09 04:05:16;;;;;;;20.75;13.65;;;1.90;97.00;;;;;;5054264;28;20177;-86
2022/03/09 04:07:42;;;;;;;19.67;12.33;;;1.90;96.80;;;;;;5054992;28;20217;-90
2022/03/09 04:10:08;;;;;;;21.17;12.20;;;1.90;97.10;;;;;;5055519;28;20591;-85
2022/03/09 04:12:34;;;;;;;22.17;12.07;;;1.90;97.00;;;;;;5055134;28;20264;-85
2022/03/09 04:15:00;;;;;;;20.47;13.40;;;1.90;97.00;;;;;;5055191;28;20430;-86
2022/03/09 04:17:25;;;;;;;19.47;13.33;;;1.90;97.30;;;;;;5065004;28;20441;-86
2022/03/09 04:19:51;;;;;;;19.53;12.87;;;2.00;97.30;;;;;;5052735;28;20456;-90
2022/03/09 04:22:17;;;;;;;14.63;11.90;;;2.00;97.40;;;;;;5052971;28;20212;-89
2022/03/09 04:24:43;;;;;;;24.43;13.33;;;2.00;97.20;;;;;;5054045;28;20395;-86
2022/03/09 04:27:08;;;;;;;20.67;12.73;;;2.10;97.20;;;;;;5052958;28;20705;-92
2022/03/09 04:29:34;;;;;;;19.80;11.70;;;2.10;97.30;;;;;;5052987;28;20382;-91
2022/03/09 04:32:00;;;;;;;16.37;11.07;;;2.10;97.30;;;;;;5054096;28;20219;-92
2022/03/09 04:34:25;;;;;;;17.80;11.40;;;2.20;97.40;;;;;;5054314;28;20216;-92
2022/03/09 04:36:51;;;;;;;16.73;11.70;;;2.20;97.40;;;;;;5054099;28;20223;-86
2022/03/09 04:39:17;;;;;;;16.83;10.60;;;2.30;97.40;;;;;;5068706;28;20205;-91
2022/03/09 04:41:43;;;;;;;16.47;11.60;;;2.40;97.40;;;;;;5074036;28;20425;-90
2022/03/09 04:44:08;;;;;;;17.97;11.90;;;2.40;97.30;;;;;;5074041;28;20177;-93
2022/03/09 04:46:34;;;;;;;16.67;11.27;;;2.50;97.40;;;;;;5074694;28;20177;-86
2022/03/09 04:49:00;;;;;;;18.17;11.47;;;2.60;97.50;;;;;;5077794;28;20204;-90
2022/03/09 04:51:26;;;;;;;15.37;11.80;;;2.60;97.40;;;;;;5086262;28;20249;-87
2022/03/09 04:53:52;;;;;;;16.30;11.20;;;2.70;97.50;;;;;;5083637;28;20456;-87
2022/03/09 04:56:17;;;;;;;15.87;11.13;;;2.60;97.40;;;;;;5072818;28;20185;-86
2022/03/09 04:58:43;;;;;;;14.43;10.40;;;2.70;97.30;;;;;;5072739;28;20197;-86
2022/03/09 05:01:09;;;;;;;17.23;10.90;;;2.70;97.30;;;;;;5076784;28;20177;-86
2022/03/09 05:03:37;;;;;;;17.60;10.83;;;2.70;97.20;;;;;;5076193;28;20445;-92
2022/03/09 05:06:03;;;;;;;17.80;12.13;;;2.70;97.30;;;;;;5076630;28;20177;-86
2022/03/09 05:08:29;;;;;;;21.27;12.60;;;2.80;97.40;;;;;;5080890;28;20197;-87
2022/03/09 05:10:55;;;;;;;16.93;10.30;;;2.80;97.40;;;;;;5077111;28;20580;-92
2022/03/09 05:13:20;;;;;;;17.77;11.50;;;2.90;97.60;;;;;;5077298;28;20220;-92
2022/03/09 05:15:47;;;;;;;22.63;13.00;;;2.90;97.40;;;;;;5075873;28;20173;-85
2022/03/09 05:18:13;;;;;;;18.02;11.88;;;2.90;97.40;;;;;;5077765;28;20197;-87
2022/03/09 05:20:38;;;;;;;20.10;12.27;;;3.00;97.30;;;;;;5078359;28;20243;-91
2022/03/09 05:23:04;;;;;;;19.03;12.43;;;3.00;97.60;;;;;;5077643;28;20205;-91
2022/03/09 05:25:30;;;;;;;16.30;10.93;;;3.10;98.80;;;;;;5080631;28;20173;-86
2022/03/09 05:27:56;;;;;;;16.25;10.57;;;3.20;99.40;;;;;;5090506;28;20197;-91
2022/03/09 05:30:22;;;;;;;17.15;11.57;;;3.20;99.90;;;;;;5075659;28;20196;-85
2022/03/09 05:32:48;;;;;;;16.60;11.13;;;3.30;99.90;;;;;;5069917;28;20229;-85
2022/03/09 05:35:13;;;;;;;17.37;11.83;;;3.40;99.90;;;;;;5066162;28;20233;-89
2022/03/09 05:37:41;;;;;;;17.73;12.43;;;3.50;99.90;;;;;;5057806;28;20529;-85
2022/03/09 05:40:09;;;;;;;21.10;12.10;;;3.50;98.40;;;;;;5078889;28;20173;-85
2022/03/09 05:42:35;;;;;;;19.85;12.98;;;3.50;97.70;;;;;;5075944;28;20200;-92
2022/03/09 05:45:01;;;;;;;16.67;12.63;;;3.50;97.70;;;;;;5077260;28;20255;-86
2022/03/09 05:47:27;;;;;;;23.27;14.05;;;3.50;97.60;;;;;;5065249;28;20192;-92
2022/03/09 05:49:53;;;;;;;22.63;14.63;;;3.40;97.50;;;;;;5077473;28;20172;-89
2022/03/09 05:52:18;;;;;;;21.03;15.20;;;3.50;97.50;;;;;;5063613;28;20292;-85
2022/03/09 05:54:45;;;;;;;23.63;15.67;;;3.50;97.50;;;;;;5054531;28;20236;-89
2022/03/09 05:57:12;;;;;;;30.83;17.30;;;3.50;97.30;;;;;;5058069;28;20216;-91
2022/03/09 05:59:38;;;;;;;31.15;18.70;;;3.50;97.50;;;;;;5057215;28;20181;-91
2022/03/09 06:02:04;;;;;;;30.93;17.07;;;3.40;97.30;;;;;;5055508;28;20202;-91
2022/03/09 06:04:30;;;;;;;31.60;18.40;;;3.50;97.40;;;;;;5057052;28;20188;-90
2022/03/09 06:06:55;;;;;;;29.90;17.60;;;3.40;97.30;;;;;;5051241;28;20504;-86
2022/03/09 06:09:21;;;;;;;30.00;17.70;;;3.40;97.20;;;;;;5037561;28;20177;-87
2022/03/09 06:11:46;;;;;;;28.83;15.93;;;3.30;97.20;;;;;;5052833;28;20178;-91
2022/03/09 06:14:12;;;;;;;26.07;15.70;;;3.20;97.20;;;;;;5069745;28;20198;-90
2022/03/09 06:16:38;;;;;;;26.37;16.70;;;3.10;97.30;;;;;;5054489;28;20231;-85
2022/03/09 06:19:04;;;;;;;29.20;18.13;;;3.10;97.80;;;;;;5053876;28;20201;-85
2022/03/09 06:21:30;;;;;;;28.23;18.23;;;3.00;97.80;;;;;;5054736;28;20231;-91
2022/03/09 06:23:55;;;;;;;26.47;18.57;;;3.00;97.80;;;;;;5053269;28;20453;-91
2022/03/09 06:26:21;;;;;;;23.37;16.53;;;3.00;97.80;;;;;;5054209;28;20449;-85
2022/03/09 06:28:47;;;;;;;26.00;16.97;;;3.00;97.80;;;;;;5054717;28;20254;-91
2022/03/09 06:31:12;;;;;;;24.00;16.73;;;3.00;97.70;;;;;;5052988;28;20186;-85
2022/03/09 06:33:38;;;;;;;29.17;19.73;;;3.00;97.70;;;;;;5049778;28;20635;-91
2022/03/09 06:36:06;;;;;;;27.27;18.13;;;3.00;97.60;;;;;;5053350;28;20433;-85
2022/03/09 06:38:32;;;;;;;28.23;18.67;;;3.00;97.60;;;;;;5055983;28;20681;-94
2022/03/09 06:40:58;;;;;;;27.50;19.25;;;3.00;97.60;;;;;;5050487;28;20178;-87
2022/03/09 06:43:24;;;;;;;30.00;19.90;;;3.00;97.60;;;;;;5050829;28;20296;-86
2022/03/09 06:45:50;;;;;;;35.17;19.47;;;3.00;97.90;;;;;;5064398;28;20599;-87
2022/03/09 06:48:16;;;;;;;28.65;18.27;;;3.00;97.90;;;;;;5050774;28;20221;-87
2022/03/09 06:50:42;;;;;;;24.90;16.43;;;2.90;98.00;;;;;;5050640;28;20186;-87
2022/03/09 06:53:08;;;;;;;31.50;19.07;;;3.00;97.90;;;;;;5050104;28;20706;-87
2022/03/09 06:55:34;;;;;;;26.43;17.60;;;2.90;97.70;;;;;;5050422;28;20173;-91
2022/03/09 06:57:59;;;;;;;31.05;19.83;;;3.00;97.90;;;;;;5049508;28;20433;-93
2022/03/09 07:00:25;;;;;;;26.17;18.40;;;3.00;97.90;;;;;;5046959;28;20696;-87
2022/03/09 07:02:51;;;;;;;26.67;16.93;;;3.00;97.90;;;;;;5050592;28;20255;-87
2022/03/09 07:05:17;;;;;;;28.93;18.17;;;3.10;97.80;;;;;;5051684;28;20217;-89
2022/03/09 07:07:43;;;;;;;34.97;19.33;;;3.10;97.90;;;;;;5048233;28;20227;-91
2022/03/09 07:10:13;;;;;;;32.30;18.67;;;3.10;97.60;;;;;;5049016;28;20411;-86
2022/03/09 07:12:40;;;;;;;33.53;17.20;;;3.10;97.70;;;;;;5057144;28;20228;-91
2022/03/09 07:15:07;;;;;;;28.05;17.33;;;3.10;97.50;;;;;;5041919;28;20198;-91
2022/03/09 07:17:33;;;;;;;24.38;15.40;;;3.10;97.80;;;;;;5033524;28;20198;-92
2022/03/09 07:19:58;;;;;;;32.63;18.58;;;3.20;97.80;;;;;;5047326;28;20181;-91
2022/03/09 07:22:24;;;;;;;25.33;16.47;;;3.20;97.80;;;;;;5046136;28;20706;-92
2022/03/09 07:24:50;;;;;;;24.43;15.23;;;3.20;97.60;;;;;;5044716;28;20394;-90
2022/03/09 07:27:16;;;;;;;28.10;16.50;;;3.20;97.50;;;;;;5051022;28;20258;-86
2022/03/09 07:29:42;;;;;;;30.38;18.80;;;3.20;97.60;;;;;;5051114;28;20205;-86
2022/03/09 07:32:14;;;;;;;32.63;17.80;;;3.30;97.40;;;;;;5058593;28;20597;-92
2022/03/09 07:34:40;;;;;;;30.90;17.33;;;3.30;97.40;;;;;;5051927;28;20275;-90
2022/03/09 07:37:06;;;;;;;32.45;17.42;;;3.40;97.70;;;;;;5049520;28;20243;-91
2022/03/09 07:39:33;;;;;;;30.40;18.30;;;3.40;97.30;;;;;;5056580;28;20182;-88
2022/03/09 07:41:59;;;;;;;27.13;16.90;;;3.40;97.50;;;;;;5060533;28;20460;-89
2022/03/09 07:44:25;;;;;;;24.90;14.88;;;3.40;97.50;;;;;;5053190;28;20247;-90
2022/03/09 07:46:51;;;;;;;28.00;16.27;;;3.50;97.20;;;;;;5057179;28;20186;-92
2022/03/09 07:49:18;;;;;;;21.65;16.02;;;3.50;97.30;;;;;;5048983;28;20274;-92
2022/03/09 07:51:45;;;;;;;26.05;16.75;;;3.60;97.10;;;;;;5049995;28;20663;-91
2022/03/09 07:54:11;;;;;;;29.65;18.58;;;3.60;97.10;;;;;;5042263;28;20216;-88
2022/03/09 07:56:37;;;;;;;26.65;16.85;;;3.70;97.30;;;;;;5041177;28;20540;-92
2022/03/09 07:59:05;;;;;;;24.15;14.93;;;3.70;97.00;;;;;;5047915;28;20185;-88
2022/03/09 08:01:31;;;;;;;36.97;19.10;;;3.80;96.90;;;;;;5038522;28;20240;-88
2022/03/09 08:03:57;;;;;;;28.95;17.60;;;3.80;97.00;;;;;;5053047;28;20209;-90
2022/03/09 08:06:23;;;;;;;28.98;17.20;;;3.90;97.00;;;;;;5049183;28;20209;-88
2022/03/09 08:08:49;;;;;;;25.53;17.33;;;3.90;97.00;;;;;;5050806;28;20240;-88
2022/03/09 08:11:15;;;;;;;27.17;15.57;;;4.00;96.80;;;;;;5047600;28;20414;-88
2022/03/09 08:13:40;;;;;;;18.55;14.95;;;4.00;96.70;;;;;;5052691;28;20225;-88
2022/03/09 08:16:07;;;;;;;26.00;16.70;;;4.10;96.90;;;;;;5056109;28;20316;-91
2022/03/09 08:18:34;;;;;;;19.85;14.93;;;4.10;96.70;;;;;;5054694;28;20205;-91
2022/03/09 08:20:59;;;;;;;22.27;14.43;;;4.20;96.80;;;;;;5051091;28;20276;-90
2022/03/09 08:23:25;;;;;;;19.43;13.80;;;4.20;96.40;;;;;;5049735;28;20314;-93
2022/03/09 08:25:52;;;;;;;23.43;14.20;;;4.20;96.30;;;;;;5052489;28;20389;-92
2022/03/09 08:28:18;;;;;;;19.77;14.50;;;4.30;96.50;;;;;;5049717;28;20421;-93
2022/03/09 08:30:45;;;;;;;21.60;13.10;;;4.30;96.40;;;;;;5048397;28;20240;-89
2022/03/09 08:33:10;;;;;;;21.25;14.13;;;4.40;96.20;;;;;;5054279;28;20241;-93
2022/03/09 08:35:37;;;;;;;17.33;12.83;;;4.40;96.30;;;;;;5055607;28;20216;-89
2022/03/09 08:38:02;;;;;;;24.83;13.55;;;4.50;95.80;;;;;;5060488;28;20245;-89
2022/03/09 08:40:28;;;;;;;19.80;13.10;;;4.50;96.00;;;;;;5055100;28;20220;-93
2022/03/09 08:42:54;;;;;;;23.73;13.20;;;4.50;95.70;;;;;;5046755;28;20225;-90
2022/03/09 08:45:20;;;;;;;17.13;11.50;;;4.60;95.60;;;;;;5035678;28;20386;-93
2022/03/09 08:47:46;;;;;;;19.73;14.80;;;4.70;95.20;;;;;;5032752;28;20276;-89
2022/03/09 08:50:12;;;;;;;17.50;12.83;;;4.70;95.40;;;;;;5029797;28;20401;-93
2022/03/09 08:52:38;;;;;;;19.23;11.95;;;4.70;95.10;;;;;;5031275;28;20464;-94
2022/03/09 08:55:04;;;;;;;19.13;13.03;;;4.80;95.60;;;;;;5032085;28;20186;-93
2022/03/09 08:57:31;;;;;;;20.77;13.70;;;4.80;95.50;;;;;;5030468;28;20444;-89
2022/03/09 09:00:03;;;;;;;19.92;12.35;;;4.90;95.50;;;;;;5042954;28;20186;-89
2022/03/09 09:02:30;;;;;;;17.15;12.45;;;4.90;94.90;;;;;;5032367;28;20292;-92
2022/03/09 09:04:56;;;;;;;19.08;13.27;;;5.00;94.90;;;;;;5036281;28;20635;-89
2022/03/09 09:07:22;;;;;;;19.58;13.73;;;5.00;94.90;;;;;;5053405;28;20210;-93
2022/03/09 09:09:48;;;;;;;19.00;12.63;;;5.10;94.80;;;;;;5031648;28;20174;-88
2022/03/09 09:12:14;;;;;;;19.70;13.77;;;5.20;94.50;;;;;;5028487;28;20540;-89
2022/03/09 09:14:39;;;;;;;15.97;12.40;;;5.20;94.60;;;;;;5033934;28;20964;-88
2022/03/09 09:17:05;;;;;;;23.80;13.00;;;5.30;94.40;;;;;;5035040;28;20213;-93
2022/03/09 09:19:31;;;;;;;20.92;13.40;;;5.40;94.60;;;;;;5028425;28;20416;-93
2022/03/09 09:21:57;;;;;;;21.97;13.87;;;5.50;93.90;;;;;;5028904;28;20615;-89
2022/03/09 09:24:23;;;;;;;22.95;14.93;;;5.60;94.30;;;;;;5018199;28;20509;-88
2022/03/09 09:26:49;;;;;;;25.00;14.13;;;5.70;93.80;;;;;;5047887;28;20182;-90
2022/03/09 09:29:17;;;;;;;22.10;13.73;;;5.90;93.90;;;;;;5052222;28;20182;-88
2022/03/09 09:31:43;;;;;;;21.55;14.15;;;5.90;93.80;;;;;;5051144;28;20432;-89
2022/03/09 09:34:09;;;;;;;18.00;12.50;;;6.00;93.70;;;;;;5050320;28;20229;-90
2022/03/09 09:36:36;;;;;;;15.03;10.20;;;6.10;93.60;;;;;;5052965;28;20241;-90
2022/03/09 09:39:03;;;;;;;16.40;11.85;;;6.10;93.30;;;;;;5059092;28;20201;-89
2022/03/09 09:41:33;;;;;;;19.40;12.73;;;6.20;93.20;;;;;;5052041;28;20192;-94
2022/03/09 09:43:59;;;;;;;19.65;12.65;;;6.20;93.40;;;;;;5048322;28;20214;-93
2022/03/09 09:46:25;;;;;;;19.30;13.65;;;6.30;93.20;;;;;;5050020;28;20251;-93
2022/03/09 09:48:51;;;;;;;22.10;14.50;;;6.30;93.40;;;;;;5053718;28;20201;-93
2022/03/09 09:51:17;;;;;;;18.57;12.17;;;6.40;93.20;;;;;;5055661;28;20181;-91
2022/03/09 09:53:44;;;;;;;20.30;12.30;;;6.40;92.90;;;;;;5052057;28;20205;-91
2022/03/09 09:56:10;;;;;;;17.95;12.30;;;6.50;92.50;;;;;;5049282;28;20231;-93
2022/03/09 09:58:44;;;;;;;18.90;13.30;;;6.60;92.60;;;;;;5051410;28;20213;-93
2022/03/09 10:01:10;;;;;;;16.27;10.90;;;6.70;92.70;;;;;;5051131;28;20190;-92
2022/03/09 10:03:36;;;;;;;18.70;11.20;;;6.70;92.30;;;;;;5045083;28;20215;-88
2022/03/09 10:06:03;;;;;;;14.52;10.77;;;6.80;92.00;;;;;;5052599;28;20231;-92
2022/03/09 10:08:28;;;;;;;17.10;12.50;;;6.90;91.70;;;;;;5057717;28;20228;-93
2022/03/09 10:10:56;;;;;;;17.67;12.07;;;6.90;91.20;;;;;;5049556;28;20651;-92
2022/03/09 10:13:27;;;;;;;21.58;14.77;;;7.00;91.30;;;;;;5048003;28;20437;-92
2022/03/09 10:16:18;;;;;;;19.65;11.40;;;7.00;91.90;;;;;;5049672;28;20260;-89
2022/03/09 10:18:54;;;;;;;15.70;11.75;;;7.20;91.70;;;;;;5043657;28;20233;-88
2022/03/09 10:21:21;;;;;;;16.38;11.80;;;7.20;91.20;;;;;;5046279;28;20186;-92
2022/03/09 10:24:05;;;;;;;16.17;11.25;;;7.30;90.90;;;;;;5047127;28;20603;-93
2022/03/09 10:26:34;;;;;;;17.92;11.52;;;7.40;90.90;;;;;;5060819;28;20182;-89
2022/03/09 10:29:09;;;;;;;15.60;11.85;;;7.50;90.30;;;;;;5054531;28;20229;-88
2022/03/09 10:31:39;;;;;;;17.02;11.32;;;7.60;89.70;;;;;;5057092;28;20181;-88
2022/03/09 10:34:11;;;;;;;18.00;11.60;;;7.60;90.20;;;;;;5056441;28;20349;-88
2022/03/09 10:36:38;;;;;;;14.85;11.30;;;7.70;90.20;;;;;;5045450;28;20207;-91
2022/03/09 10:39:16;;;;;;;16.98;10.50;;;7.80;89.80;;;;;;5050601;28;20204;-88
2022/03/09 10:41:43;;;;;;;17.50;11.65;;;7.80;89.80;;;;;;5056148;28;20199;-93
2022/03/09 10:44:11;;;;;;;16.30;11.43;;;7.90;89.30;;;;;;5056449;28;20181;-90
2022/03/09 10:46:42;;;;;;;16.67;11.10;;;7.90;89.30;;;;;;5051001;28;20197;-89
2022/03/09 10:49:08;;;;;;;16.40;11.45;;;8.00;89.30;;;;;;5052144;28;20199;-89
2022/03/09 10:51:35;;;;;;;20.05;12.57;;;8.00;89.60;;;;;;5053157;28;20182;-92
2022/03/09 10:54:28;;;;;;;18.17;12.07;;;8.00;89.10;;;;;;5055579;28;20221;-91
2022/03/09 10:57:06;;;;;;;18.17;11.77;;;8.10;88.50;;;;;;5050685;28;20201;-93
2022/03/09 10:59:44;;;;;;;18.85;12.77;;;8.20;88.80;;;;;;5050646;28;20181;-94
2022/03/09 11:02:11;;;;;;;19.27;12.90;;;8.20;87.40;;;;;;5055036;28;20198;-93
2022/03/09 11:04:38;;;;;;;20.52;14.05;;;8.20;87.30;;;;;;5051519;28;20182;-93
2022/03/09 11:07:09;;;;;;;21.63;13.25;;;8.30;87.90;;;;;;5053814;28;20205;-92
2022/03/09 11:09:38;;;;;;;21.55;14.40;;;8.20;87.30;;;;;;5052113;28;20196;-93
2022/03/09 11:12:05;;;;;;;21.00;14.85;;;8.20;88.00;;;;;;5052613;28;20214;-94
2022/03/09 11:14:31;;;;;;;26.95;16.10;;;8.20;88.20;;;;;;5054359;28;20503;-89
2022/03/09 11:16:59;;;;;;;22.77;15.75;;;8.20;88.20;;;;;;5052416;28;20214;-89
2022/03/09 11:19:25;;;;;;;26.73;16.23;;;8.20;88.40;;;;;;5066639;28;20189;-89
2022/03/09 11:21:55;;;;;;;25.98;16.52;;;8.20;88.80;;;;;;5050629;28;20181;-88
2022/03/09 11:24:21;;;;;;;24.33;16.08;;;8.20;88.70;;;;;;5050345;28;20185;-87
2022/03/09 11:27:02;;;;;;;23.63;16.15;;;8.20;88.40;;;;;;5050177;28;20197;-89
2022/03/09 11:29:38;;;;;;;22.27;16.38;;;8.20;89.30;;;;;;5049795;28;20185;-89
2022/03/09 11:32:06;;;;;;;24.63;16.17;;;8.30;88.90;;;;;;5053977;28;20209;-93
2022/03/09 11:34:37;;;;;;;25.40;17.98;;;8.30;89.10;;;;;;5050873;28;20218;-92
2022/03/09 11:37:18;;;;;;;26.13;17.15;;;8.30;88.60;;;;;;5054124;28;20201;-93
2022/03/09 11:40:05;;;;;;;24.33;16.75;;;8.30;88.60;;;;;;5061164;28;20738;-93
2022/03/09 11:42:34;;;;;;;27.83;17.13;;;8.40;89.40;;;;;;5048922;28;20244;-93
2022/03/09 11:45:20;;;;;;;23.27;16.10;;;8.40;89.30;;;;;;5057611;28;20173;-89
2022/03/09 11:48:12;;;;;;;27.58;16.33;;;8.50;89.60;;;;;;5048750;28;20233;-89
2022/03/09 11:50:47;;;;;;;21.90;15.75;;;8.50;89.30;;;;;;5057682;28;20445;-89
2022/03/09 11:53:14;;;;;;;21.40;15.57;;;8.50;88.60;;;;;;5049239;28;20216;-93
2022/03/09 11:55:40;;;;;;;28.15;17.08;;;8.60;88.50;;;;;;5049639;28;20183;-92
2022/03/09 11:58:13;;;;;;;22.75;13.75;;;8.60;88.10;;;;;;5045369;28;20244;-94
2022/03/09 12:00:58;;;;;;;17.23;11.40;;;8.60;87.30;;;;;;5047742;28;20527;-93
2022/03/09 12:03:38;;;;;;;16.00;12.10;;;8.60;86.80;;;;;;5047013;28;20203;-93
2022/03/09 12:06:04;;;;;;;18.83;11.80;;;8.60;86.30;;;;;;5048196;28;20174;-93
2022/03/09 12:08:46;;;;;;;18.27;12.45;;;8.60;85.60;;;;;;5047472;28;20204;-93
2022/03/09 12:11:12;;;;;;;19.98;11.38;;;8.60;86.80;;;;;;5062088;28;20197;-93
2022/03/09 12:13:44;;;;;;;15.33;10.33;;;8.60;85.70;;;;;;5067306;28;20218;-88
2022/03/09 12:16:19;;;;;;;17.60;10.90;;;8.60;85.30;;;;;;5053348;28;20190;-90
2022/03/09 12:18:58;;;;;;;14.55;11.18;;;8.60;85.80;;;;;;5039305;28;20201;-93
2022/03/09 12:21:27;;;;;;;22.77;12.20;;;8.70;85.70;;;;;;5042868;28;20240;-93
2022/03/09 12:24:04;;;;;;;16.98;12.45;;;8.70;85.90;;;;;;5042258;28;20273;-94
2022/03/09 12:26:45;;;;;;;19.67;11.95;;;8.80;85.00;;;;;;5050203;28;20733;-91
2022/03/09 12:29:24;;;;;;;18.48;11.55;;;8.80;85.50;;;;;;5049985;28;20228;-92
2022/03/09 12:32:02;;;;;;;14.48;10.75;;;8.90;85.50;;;;;;5042521;28;20268;-89
2022/03/09 12:34:30;;;;;;;20.58;11.93;;;8.90;85.60;;;;;;5048864;28;20255;-93
2022/03/09 12:36:57;;;;;;;16.90;11.68;;;9.00;85.30;;;;;;5052434;28;20182;-91
2022/03/09 12:39:27;;;;;;;20.77;13.10;;;9.00;85.00;;;;;;5050155;28;20188;-92